Time;durP1;ratioP1;P1;durP2;ratioP2;P2;SDS_P1;SDS_P2;PMS_P1;PMS_P2;Temp;Humidity;BMP_temperature;BMP_pressure;BME280_temperature;BME280_humidity;BME280_pressure;Samples;Min_cycle;Max_cycle;Signal;HPM_P1;HPM_P2
2021/11/19 00:00:48;;;;;;;31.50;14.38;;;;;;;;;;5056840;28;20391;-72
2021/11/19 00:03:15;;;;;;;36.85;15.07;;;;;;;;;;5049240;28;20068;-73
2021/11/19 00:05:42;;;;;;;38.28;16.30;;;;;;;;;;5057493;28;20044;-73
2021/11/19 00:08:08;;;;;;;36.80;14.43;;;;;;;;;;5044867;28;20045;-72
2021/11/19 00:10:35;;;;;;;41.10;15.68;;;;;;;;;;5052851;28;20056;-73
2021/11/19 00:13:01;;;;;;;34.38;15.13;;;;;;;;;;5048839;28;20056;-72
2021/11/19 00:15:28;;;;;;;35.92;16.08;;;;;;;;;;5057569;28;20052;-72
2021/11/19 00:17:54;;;;;;;38.47;16.67;;;;;;;;;;5057183;28;20069;-73
2021/11/19 00:20:27;;;;;;;35.05;15.50;;;;;;;;;;5047826;28;20530;-73
2021/11/19 00:22:55;;;;;;;30.35;15.40;;;;;;;;;;5049452;28;20044;-73
2021/11/19 00:25:21;;;;;;;35.78;15.98;;;;;;;;;;5049940;28;20059;-73
2021/11/19 00:27:48;;;;;;;30.55;14.95;;;;;;;;;;5057236;28;20094;-72
2021/11/19 00:30:17;;;;;;;38.20;16.85;;;;;;;;;;5031637;28;20157;-73
2021/11/19 00:32:44;;;;;;;41.65;15.93;;;;;;;;;;5039235;28;20049;-72
2021/11/19 00:35:11;;;;;;;41.78;16.42;;;;;;;;;;5047915;28;20044;-72
2021/11/19 00:37:38;;;;;;;40.47;16.73;;;;;;;;;;5053281;28;20486;-72
2021/11/19 00:40:06;;;;;;;39.45;15.65;;;;;;;;;;5059077;28;20103;-72
2021/11/19 00:42:32;;;;;;;35.08;15.23;;;;;;;;;;5049967;28;20051;-72
2021/11/19 00:44:58;;;;;;;34.78;16.33;;;;;;;;;;5059026;28;20049;-72
2021/11/19 00:47:25;;;;;;;33.72;15.80;;;;;;;;;;5033319;28;20051;-72
2021/11/19 00:49:52;;;;;;;34.00;16.23;;;;;;;;;;5053816;28;20064;-72
2021/11/19 00:52:19;;;;;;;39.87;17.53;;;;;;;;;;5047389;28;20056;-72
2021/11/19 00:54:45;;;;;;;37.13;17.20;;;;;;;;;;5057383;28;20301;-72
2021/11/19 00:57:13;;;;;;;32.15;15.75;;;;;;;;;;5045600;28;20048;-72
2021/11/19 00:59:40;;;;;;;46.13;17.88;;;;;;;;;;5052907;28;20052;-72
2021/11/19 01:02:12;;;;;;;37.05;17.70;;;;;;;;;;5042708;28;20053;-72
2021/11/19 01:04:39;;;;;;;36.92;17.85;;;;;;;;;;5027951;28;20444;-72
2021/11/19 01:07:07;;;;;;;32.15;15.40;;;;;;;;;;5059184;28;20045;-72
2021/11/19 01:09:35;;;;;;;38.97;16.73;;;;;;;;;;5051627;28;20718;-72
2021/11/19 01:12:03;;;;;;;31.25;15.60;;;;;;;;;;5059671;28;20055;-72
2021/11/19 01:14:31;;;;;;;47.40;17.50;;;;;;;;;;5059605;28;20044;-72
2021/11/19 01:17:00;;;;;;;35.85;16.67;;;;;;;;;;5047014;28;20640;-72
2021/11/19 01:19:41;;;;;;;39.72;18.13;;;;;;;;;;5035888;28;20044;-72
2021/11/19 01:22:10;;;;;;;39.70;17.17;;;;;;;;;;5051573;28;20136;-72
2021/11/19 01:24:39;;;;;;;39.67;18.50;;;;;;;;;;5059387;28;20048;-72
2021/11/19 01:27:05;;;;;;;;;;;;;;;;;;5033726;28;20055;-72
2021/11/19 01:29:32;;;;;;;42.42;17.98;;;;;;;;;;5038490;28;19924;-72
2021/11/19 01:32:02;;;;;;;40.58;17.73;;;;;;;;;;5051664;28;20143;-72
2021/11/19 01:34:29;;;;;;;34.80;16.55;;;;;;;;;;5057984;28;20067;-72
2021/11/19 01:36:56;;;;;;;39.00;18.48;;;;;;;;;;5057559;28;20044;-72
2021/11/19 01:39:24;;;;;;;38.20;17.48;;;;;;;;;;5050232;28;20049;-72
2021/11/19 01:41:57;;;;;;;34.60;18.42;;;;;;;;;;5057013;28;20052;-72
2021/11/19 01:44:26;;;;;;;33.72;17.30;;;;;;;;;;5047917;28;20125;-72
2021/11/19 01:46:53;;;;;;;38.53;18.77;;;;;;;;;;5058302;28;20049;-72
2021/11/19 01:49:20;;;;;;;38.38;18.70;;;;;;;;;;5050312;28;20048;-72
2021/11/19 01:51:50;;;;;;;38.78;17.80;;;;;;;;;;5058684;28;20534;-72
2021/11/19 01:54:20;;;;;;;41.38;22.05;;;;;;;;;;5040488;28;20056;-72
2021/11/19 01:56:56;;;;;;;44.50;18.67;;;;;;;;;;5046788;28;20071;-72
2021/11/19 01:59:32;;;;;;;33.17;18.75;;;;;;;;;;5056158;28;20064;-72
2021/11/19 02:02:04;;;;;;;43.28;21.08;;;;;;;;;;5051855;28;20473;-73
2021/11/19 02:04:33;;;;;;;42.75;20.98;;;;;;;;;;5059195;28;20412;-73
2021/11/19 02:07:05;;;;;;;56.38;22.40;;;;;;;;;;5051094;28;20052;-73
2021/11/19 02:09:36;;;;;;;39.03;20.38;;;;;;;;;;5054185;28;20049;-73
2021/11/19 02:12:02;;;;;;;38.28;20.52;;;;;;;;;;5048687;28;20427;-73
2021/11/19 02:14:37;;;;;;;45.90;21.63;;;;;;;;;;5057804;28;20079;-73
2021/11/19 02:17:04;;;;;;;41.38;20.92;;;;;;;;;;5057613;28;20049;-73
2021/11/19 02:19:35;;;;;;;45.00;21.83;;;;;;;;;;5050797;28;20052;-74
2021/11/19 02:22:04;;;;;;;45.13;24.08;;;;;;;;;;5059340;28;20045;-74
2021/11/19 02:24:39;;;;;;;40.15;21.65;;;;;;;;;;5048678;28;20049;-73
2021/11/19 02:27:15;;;;;;;43.30;20.83;;;;;;;;;;5054583;28;20052;-73
2021/11/19 02:29:46;;;;;;;49.28;24.00;;;;;;;;;;5034704;28;20056;-73
2021/11/19 02:32:14;;;;;;;42.28;21.75;;;;;;;;;;5058975;28;20665;-73
2021/11/19 02:34:40;;;;;;;47.97;22.88;;;;;;;;;;5052145;28;20059;-73
2021/11/19 02:37:10;;;;;;;51.47;23.42;;;;;;;;;;5055925;28;20045;-73
2021/11/19 02:39:41;;;;;;;51.42;23.73;;;;;;;;;;5054278;28;20072;-73
2021/11/19 02:42:10;;;;;;;46.67;23.15;;;;;;;;;;5050121;28;20064;-73
2021/11/19 02:44:38;;;;;;;45.58;22.17;;;;;;;;;;5060073;28;20044;-73
2021/11/19 02:47:08;;;;;;;44.72;22.40;;;;;;;;;;5054036;28;20049;-73
2021/11/19 02:49:37;;;;;;;40.28;21.15;;;;;;;;;;5043107;28;20048;-73
2021/11/19 02:52:04;;;;;;;47.05;23.98;;;;;;;;;;5048947;28;20052;-73
2021/11/19 02:54:31;;;;;;;45.88;22.85;;;;;;;;;;5057331;28;20432;-73
2021/11/19 02:56:58;;;;;;;50.65;22.92;;;;;;;;;;5060568;28;20054;-73
2021/11/19 02:59:24;;;;;;;49.20;24.75;;;;;;;;;;5055776;28;20044;-73
2021/11/19 03:01:53;;;;;;;41.70;22.73;;;;;;;;;;5060896;28;20390;-73
2021/11/19 03:04:22;;;;;;;44.80;23.40;;;;;;;;;;5053037;28;20167;-73
2021/11/19 03:06:51;;;;;;;47.88;24.17;;;;;;;;;;5054816;28;20059;-73
2021/11/19 03:09:23;;;;;;;47.42;25.55;;;;;;;;;;5054869;28;20468;-73
2021/11/19 03:11:50;;;;;;;48.10;26.02;;;;;;;;;;5059580;28;20059;-73
2021/11/19 03:14:18;;;;;;;46.38;25.77;;;;;;;;;;5053946;28;20055;-73
2021/11/19 03:16:44;;;;;;;51.53;26.92;;;;;;;;;;5060118;28;20074;-73
2021/11/19 03:19:11;;;;;;;57.08;27.50;;;;;;;;;;5056533;28;20053;-73
2021/11/19 03:21:38;;;;;;;52.22;26.75;;;;;;;;;;5047824;28;20556;-73
2021/11/19 03:24:05;;;;;;;49.92;27.27;;;;;;;;;;5062174;28;20144;-73
2021/11/19 03:26:33;;;;;;;56.38;28.02;;;;;;;;;;5055855;28;20434;-72
2021/11/19 03:29:01;;;;;;;64.00;34.88;;;;;;;;;;5061572;28;20044;-73
2021/11/19 03:31:27;;;;;;;59.93;29.40;;;;;;;;;;5038297;28;20048;-73
2021/11/19 03:33:54;;;;;;;63.33;29.63;;;;;;;;;;5056000;28;20497;-73
2021/11/19 03:36:21;;;;;;;58.10;28.05;;;;;;;;;;5058124;28;20060;-72
2021/11/19 03:38:51;;;;;;;68.18;30.45;;;;;;;;;;5054985;28;20055;-73
2021/11/19 03:41:18;;;;;;;56.35;28.38;;;;;;;;;;5061583;28;20494;-73
2021/11/19 03:43:50;;;;;;;59.65;29.80;;;;;;;;;;5054715;28;20056;-73
2021/11/19 03:46:19;;;;;;;56.85;30.42;;;;;;;;;;5057901;28;20236;-73
2021/11/19 03:48:45;;;;;;;;;;;;;;;;;;5052560;28;20490;-73
2021/11/19 03:51:17;;;;;;;51.88;27.60;;;;;;;;;;5061633;28;19928;-72
2021/11/19 03:53:43;;;;;;;55.72;30.10;;;;;;;;;;5060640;28;20063;-72
2021/11/19 03:56:09;;;;;;;61.97;30.70;;;;;;;;;;5051678;28;20451;-72
2021/11/19 03:58:37;;;;;;;64.90;31.95;;;;;;;;;;5057106;28;20056;-73
2021/11/19 04:01:06;;;;;;;60.25;30.65;;;;;;;;;;5048877;28;20152;-73
2021/11/19 04:03:32;;;;;;;61.25;29.73;;;;;;;;;;5059918;28;20059;-73
2021/11/19 04:05:58;;;;;;;66.13;33.53;;;;;;;;;;5052023;28;20474;-73
2021/11/19 04:08:25;;;;;;;57.38;30.17;;;;;;;;;;5060802;28;20055;-73
2021/11/19 04:10:52;;;;;;;63.30;28.98;;;;;;;;;;5059406;28;20484;-73
2021/11/19 04:13:19;;;;;;;52.17;28.08;;;;;;;;;;5029655;28;20080;-74
2021/11/19 04:15:47;;;;;;;55.05;29.20;;;;;;;;;;5054952;28;20064;-73
2021/11/19 04:18:14;;;;;;;;;;;;;;;;;;5052142;28;20051;-73
2021/11/19 04:20:41;;;;;;;52.47;27.40;;;;;;;;;;5059824;28;19935;-73
2021/11/19 04:23:07;;;;;;;64.30;30.73;;;;;;;;;;5052870;28;20048;-73
2021/11/19 04:25:34;;;;;;;57.13;30.73;;;;;;;;;;5059970;28;20460;-73
2021/11/19 04:28:01;;;;;;;63.00;30.85;;;;;;;;;;5054560;28;20040;-73
2021/11/19 04:30:31;;;;;;;57.75;30.42;;;;;;;;;;5029950;28;20641;-73
2021/11/19 04:32:58;;;;;;;55.97;28.58;;;;;;;;;;5060159;28;20050;-73
2021/11/19 04:35:26;;;;;;;59.80;30.40;;;;;;;;;;5035315;28;20127;-73
2021/11/19 04:37:53;;;;;;;60.40;29.88;;;;;;;;;;5059515;28;20061;-73
2021/11/19 04:40:20;;;;;;;61.53;30.40;;;;;;;;;;5049797;28;20522;-73
2021/11/19 04:42:47;;;;;;;57.03;30.35;;;;;;;;;;5052031;28;20489;-73
2021/11/19 04:45:14;;;;;;;59.72;30.00;;;;;;;;;;5057628;28;20477;-73
2021/11/19 04:47:41;;;;;;;59.20;28.90;;;;;;;;;;5057409;28;20044;-74
2021/11/19 04:50:08;;;;;;;54.30;29.95;;;;;;;;;;5059937;28;20504;-73
2021/11/19 04:52:35;;;;;;;55.50;29.23;;;;;;;;;;5053530;28;20576;-73
2021/11/19 04:55:01;;;;;;;51.20;27.10;;;;;;;;;;5037816;28;20037;-73
2021/11/19 04:57:28;;;;;;;50.30;27.50;;;;;;;;;;5048122;28;20044;-73
2021/11/19 04:59:54;;;;;;;50.40;26.73;;;;;;;;;;5058877;28;20409;-73
2021/11/19 05:02:21;;;;;;;48.55;26.80;;;;;;;;;;5056736;28;20067;-74
2021/11/19 05:04:50;;;;;;;52.40;26.65;;;;;;;;;;5040187;28;20080;-73
2021/11/19 05:07:17;;;;;;;51.28;26.63;;;;;;;;;;5059236;28;20045;-73
2021/11/19 05:09:43;;;;;;;55.95;27.38;;;;;;;;;;5048700;28;20056;-73
2021/11/19 05:12:15;;;;;;;53.28;27.80;;;;;;;;;;5055299;28;20048;-73
2021/11/19 05:14:42;;;;;;;47.70;27.90;;;;;;;;;;5052376;28;20048;-73
2021/11/19 05:17:10;;;;;;;50.70;27.83;;;;;;;;;;5041391;28;20052;-73
2021/11/19 05:19:36;;;;;;;55.17;27.58;;;;;;;;;;5033017;28;20052;-73
2021/11/19 05:22:04;;;;;;;51.90;28.05;;;;;;;;;;5057604;28;20044;-73
2021/11/19 05:24:31;;;;;;;55.40;28.77;;;;;;;;;;5051202;28;20244;-73
2021/11/19 05:26:57;;;;;;;50.50;26.83;;;;;;;;;;5048985;28;20386;-73
2021/11/19 05:29:23;;;;;;;54.08;27.15;;;;;;;;;;5041163;28;20059;-73
2021/11/19 05:31:51;;;;;;;55.88;28.45;;;;;;;;;;5032569;28;20145;-73
2021/11/19 05:34:18;;;;;;;58.42;29.35;;;;;;;;;;5059037;28;20494;-73
2021/11/19 05:36:44;;;;;;;55.83;27.48;;;;;;;;;;5046595;28;20060;-73
2021/11/19 05:39:12;;;;;;;62.05;28.60;;;;;;;;;;5035619;28;20629;-73
2021/11/19 05:41:38;;;;;;;55.45;26.92;;;;;;;;;;5057727;28;20497;-73
2021/11/19 05:44:05;;;;;;;51.55;28.67;;;;;;;;;;5051322;28;20500;-73
2021/11/19 05:46:36;;;;;;;52.88;28.63;;;;;;;;;;5058707;28;20048;-73
2021/11/19 05:49:02;;;;;;;59.80;30.10;;;;;;;;;;5051239;28;20409;-73
2021/11/19 05:51:28;;;;;;;53.20;28.25;;;;;;;;;;5053707;28;20059;-73
2021/11/19 05:53:55;;;;;;;54.05;28.48;;;;;;;;;;5047154;28;20482;-74
2021/11/19 05:56:22;;;;;;;55.47;28.30;;;;;;;;;;5057263;28;20044;-73
2021/11/19 05:58:48;;;;;;;56.08;28.75;;;;;;;;;;5057852;28;20050;-73
2021/11/19 06:01:17;;;;;;;51.03;26.25;;;;;;;;;;5050711;28;20052;-74
2021/11/19 06:03:45;;;;;;;54.03;27.63;;;;;;;;;;5058734;28;20053;-73
2021/11/19 06:06:12;;;;;;;56.50;28.55;;;;;;;;;;5045410;28;20429;-74
2021/11/19 06:08:39;;;;;;;51.30;28.38;;;;;;;;;;5054531;28;20070;-73
2021/11/19 06:11:11;;;;;;;63.30;29.07;;;;;;;;;;5050096;28;20421;-73
2021/11/19 06:13:40;;;;;;;53.90;26.33;;;;;;;;;;5057877;28;20051;-73
2021/11/19 06:16:06;;;;;;;;;;;;;;;;;;5059198;28;20049;-74
2021/11/19 06:18:34;;;;;;;49.17;26.85;;;;;;;;;;5028715;28;20250;-74
2021/11/19 06:21:03;;;;;;;49.50;26.88;;;;;;;;;;5056638;28;20036;-76
2021/11/19 06:23:35;;;;;;;54.38;26.75;;;;;;;;;;5054533;28;20402;-76
2021/11/19 06:26:04;;;;;;;53.55;28.73;;;;;;;;;;5062301;28;20078;-74
2021/11/19 06:28:33;;;;;;;53.17;27.60;;;;;;;;;;5053848;28;20622;-74
2021/11/19 06:31:00;;;;;;;51.58;25.85;;;;;;;;;;5044786;28;20060;-74
2021/11/19 06:33:27;;;;;;;52.55;27.27;;;;;;;;;;5055736;28;20052;-74
2021/11/19 06:35:53;;;;;;;52.40;26.48;;;;;;;;;;5054979;28;20157;-74
2021/11/19 06:38:20;;;;;;;55.03;28.50;;;;;;;;;;5062452;28;20052;-74
2021/11/19 06:40:51;;;;;;;52.35;25.48;;;;;;;;;;5036724;28;20056;-74
2021/11/19 06:43:18;;;;;;;50.42;26.48;;;;;;;;;;5061847;28;20048;-74
2021/11/19 06:45:44;;;;;;;47.63;25.23;;;;;;;;;;5054012;28;20044;-74
2021/11/19 06:48:10;;;;;;;55.05;26.48;;;;;;;;;;5035948;28;20110;-74
2021/11/19 06:50:38;;;;;;;56.55;27.65;;;;;;;;;;5055767;28;20869;-76
2021/11/19 06:53:05;;;;;;;51.42;26.10;;;;;;;;;;5059371;28;20042;-74
2021/11/19 06:55:32;;;;;;;52.22;26.85;;;;;;;;;;5044486;28;20060;-74
2021/11/19 06:57:59;;;;;;;51.50;27.55;;;;;;;;;;5053789;28;20551;-74
2021/11/19 07:00:28;;;;;;;48.05;25.50;;;;;;;;;;5057725;28;20052;-74
2021/11/19 07:02:55;;;;;;;50.50;26.33;;;;;;;;;;5050716;28;20052;-74
2021/11/19 07:05:22;;;;;;;51.38;27.55;;;;;;;;;;5061789;28;20048;-74
2021/11/19 07:07:48;;;;;;;49.55;26.33;;;;;;;;;;5056764;28;20041;-74
2021/11/19 07:10:16;;;;;;;49.42;25.30;;;;;;;;;;5061943;28;20456;-74
2021/11/19 07:12:42;;;;;;;45.85;25.85;;;;;;;;;;5061472;28;20702;-74
2021/11/19 07:15:09;;;;;;;44.55;24.80;;;;;;;;;;5050109;28;20903;-73
2021/11/19 07:17:36;;;;;;;45.58;26.50;;;;;;;;;;5045067;28;20063;-74
2021/11/19 07:20:04;;;;;;;41.80;23.30;;;;;;;;;;5028625;28;20059;-73
2021/11/19 07:22:30;;;;;;;42.28;24.25;;;;;;;;;;5043011;28;20423;-73
2021/11/19 07:24:57;;;;;;;47.45;25.10;;;;;;;;;;5035846;28;20067;-73
2021/11/19 07:27:23;;;;;;;49.90;27.08;;;;;;;;;;5059572;28;20059;-73
2021/11/19 07:29:50;;;;;;;46.08;24.67;;;;;;;;;;5034354;28;20052;-73
2021/11/19 07:32:16;;;;;;;52.38;26.25;;;;;;;;;;5033420;28;20493;-74
2021/11/19 07:34:44;;;;;;;48.33;23.75;;;;;;;;;;5060455;28;20939;-74
2021/11/19 07:37:10;;;;;;;48.42;25.35;;;;;;;;;;5053135;28;20044;-74
2021/11/19 07:39:37;;;;;;;47.88;24.80;;;;;;;;;;5060787;28;20106;-74
2021/11/19 07:42:04;;;;;;;40.05;23.63;;;;;;;;;;5051737;28;20056;-74
2021/11/19 07:44:30;;;;;;;39.97;23.98;;;;;;;;;;5039171;28;20054;-74
2021/11/19 07:46:56;;;;;;;46.38;24.45;;;;;;;;;;5060514;28;20051;-74
2021/11/19 07:49:23;;;;;;;45.33;23.95;;;;;;;;;;5052835;28;20048;-74
2021/11/19 07:51:50;;;;;;;46.50;25.80;;;;;;;;;;5061585;28;20481;-74
2021/11/19 07:54:16;;;;;;;43.97;24.60;;;;;;;;;;5054775;28;20048;-74
2021/11/19 07:56:46;;;;;;;46.50;23.80;;;;;;;;;;5053482;28;20052;-74
2021/11/19 07:59:26;;;;;;;47.15;25.52;;;;;;;;;;5031606;28;20044;-74
2021/11/19 08:01:56;;;;;;;44.95;23.17;;;;;;;;;;5060119;28;20980;-73
2021/11/19 08:04:23;;;;;;;47.00;23.20;;;;;;;;;;5057093;28;20163;-74
2021/11/19 08:06:53;;;;;;;41.70;24.08;;;;;;;;;;5059001;28;20074;-74
2021/11/19 08:09:21;;;;;;;42.20;23.70;;;;;;;;;;5039911;28;20485;-74
2021/11/19 08:11:47;;;;;;;39.30;22.10;;;;;;;;;;5048350;28;20052;-74
2021/11/19 08:14:14;;;;;;;39.75;21.25;;;;;;;;;;5059991;28;20048;-74
2021/11/19 08:16:46;;;;;;;36.08;21.50;;;;;;;;;;5051486;28;20068;-74
2021/11/19 08:19:20;;;;;;;39.92;21.58;;;;;;;;;;5060406;28;20056;-74
2021/11/19 08:21:46;;;;;;;40.35;23.02;;;;;;;;;;5051868;28;20485;-74
2021/11/19 08:24:13;;;;;;;37.63;20.95;;;;;;;;;;5037248;28;20393;-73
2021/11/19 08:26:41;;;;;;;44.17;22.13;;;;;;;;;;5036617;28;20055;-74
2021/11/19 08:29:07;;;;;;;;;;;;;;;;;;5034489;28;20051;-74
2021/11/19 08:31:34;;;;;;;36.67;20.08;;;;;;;;;;5059685;28;19951;-74
2021/11/19 08:34:00;;;;;;;33.97;20.33;;;;;;;;;;5050818;28;20055;-73
2021/11/19 08:36:28;;;;;;;37.55;21.65;;;;;;;;;;5059415;28;20139;-74
2021/11/19 08:38:55;;;;;;;36.53;21.42;;;;;;;;;;5044078;28;20044;-74
2021/11/19 08:41:22;;;;;;;34.95;20.65;;;;;;;;;;5056055;28;20059;-73
2021/11/19 08:43:50;;;;;;;43.30;22.42;;;;;;;;;;5058782;28;20044;-73
2021/11/19 08:46:19;;;;;;;41.92;21.77;;;;;;;;;;5052842;28;20048;-74
2021/11/19 08:48:49;;;;;;;34.85;19.58;;;;;;;;;;5042583;28;20480;-74
2021/11/19 08:51:19;;;;;;;38.95;20.33;;;;;;;;;;5047264;28;20055;-74
2021/11/19 08:53:46;;;;;;;36.17;21.35;;;;;;;;;;5053571;28;20049;-74
2021/11/19 08:56:13;;;;;;;37.07;21.63;;;;;;;;;;5051975;28;20063;-74
2021/11/19 08:58:41;;;;;;;32.45;19.10;;;;;;;;;;5059976;28;20522;-74
2021/11/19 09:01:08;;;;;;;35.20;19.73;;;;;;;;;;5060363;28;20048;-73
2021/11/19 09:03:34;;;;;;;36.00;20.15;;;;;;;;;;5034978;28;20080;-74
2021/11/19 09:06:02;;;;;;;33.80;20.50;;;;;;;;;;5054120;28;20044;-74
2021/11/19 09:08:29;;;;;;;34.60;20.43;;;;;;;;;;5027851;28;20052;-74
2021/11/19 09:10:57;;;;;;;33.95;19.67;;;;;;;;;;5059222;28;20044;-74
2021/11/19 09:13:24;;;;;;;35.03;18.98;;;;;;;;;;5052687;28;20048;-73
2021/11/19 09:15:51;;;;;;;31.05;18.98;;;;;;;;;;5057940;28;20304;-73
2021/11/19 09:18:53;;;;;;;35.58;19.65;;;;;;;;;;5058221;28;20048;-74
2021/11/19 09:21:19;;;;;;;33.40;19.90;;;;;;;;;;4983671;28;20582;-73
2021/11/19 09:23:50;;;;;;;34.22;18.38;;;;;;;;;;5042269;28;20047;-74
2021/11/19 09:26:18;;;;;;;31.02;17.77;;;;;;;;;;5052888;28;20059;-74
2021/11/19 09:28:46;;;;;;;32.08;18.27;;;;;;;;;;5058913;28;20052;-74
2021/11/19 09:31:16;;;;;;;32.53;19.92;;;;;;;;;;5050335;28;20049;-74
2021/11/19 09:33:43;;;;;;;33.28;18.73;;;;;;;;;;5054078;28;20044;-73
2021/11/19 09:36:10;;;;;;;33.25;17.77;;;;;;;;;;5027944;28;20048;-74
2021/11/19 09:38:36;;;;;;;30.08;19.30;;;;;;;;;;5058305;28;20048;-74
2021/11/19 09:41:21;;;;;;;27.50;18.45;;;;;;;;;;5057352;28;20058;-73
2021/11/19 09:44:19;;;;;;;26.67;17.35;;;;;;;;;;5051715;28;20494;-74
2021/11/19 09:46:54;;;;;;;36.10;19.83;;;;;;;;;;5058121;28;20063;-73
2021/11/19 09:49:36;;;;;;;33.53;18.92;;;;;;;;;;5045759;28;20284;-73
2021/11/19 09:52:22;;;;;;;29.15;19.63;;;;;;;;;;5059573;28;20059;-74
2021/11/19 09:54:55;;;;;;;36.72;18.33;;;;;;;;;;5053747;28;20295;-73
2021/11/19 09:57:40;;;;;;;28.42;17.38;;;;;;;;;;5060368;28;20059;-73
2021/11/19 10:00:09;;;;;;;26.05;16.25;;;;;;;;;;5053655;28;20051;-74
2021/11/19 10:02:59;;;;;;;28.48;17.50;;;;;;;;;;5054177;28;20056;-74
2021/11/19 10:05:25;;;;;;;26.30;15.90;;;;;;;;;;5054150;28;20115;-73
2021/11/19 10:08:01;;;;;;;24.67;14.75;;;;;;;;;;5061513;28;20056;-73
2021/11/19 10:10:33;;;;;;;28.80;16.23;;;;;;;;;;5054995;28;20060;-74
2021/11/19 10:13:19;;;;;;;26.58;15.52;;;;;;;;;;5062130;28;20063;-74
2021/11/19 10:16:04;;;;;;;24.70;15.48;;;;;;;;;;5051399;28;20171;-74
2021/11/19 10:18:42;;;;;;;27.63;15.45;;;;;;;;;;5058604;28;20045;-74
2021/11/19 10:21:10;;;;;;;21.17;14.35;;;;;;;;;;5066632;28;20506;-73
2021/11/19 10:24:03;;;;;;;26.20;15.45;;;;;;;;;;5043322;28;20493;-74
2021/11/19 10:26:34;;;;;;;20.80;14.82;;;;;;;;;;5053601;28;20049;-73
2021/11/19 10:29:03;;;;;;;25.23;15.00;;;;;;;;;;5031598;28;20139;-74
2021/11/19 10:31:29;;;;;;;25.65;14.38;;;;;;;;;;5062704;28;20681;-73
2021/11/19 10:34:05;;;;;;;20.80;13.18;;;;;;;;;;5037561;28;20083;-73
2021/11/19 10:36:34;;;;;;;25.23;14.15;;;;;;;;;;5062793;28;20478;-74
2021/11/19 10:39:21;;;;;;;22.17;15.00;;;;;;;;;;5055111;28;20048;-73
2021/11/19 10:41:53;;;;;;;25.00;13.88;;;;;;;;;;5056041;28;20366;-74
2021/11/19 10:44:26;;;;;;;21.83;13.40;;;;;;;;;;5035423;28;20524;-73
2021/11/19 10:47:14;;;;;;;21.92;12.60;;;;;;;;;;5063191;28;20051;-74
2021/11/19 10:49:50;;;;;;;20.17;11.90;;;;;;;;;;5057465;28;20050;-74
2021/11/19 10:52:35;;;;;;;19.33;12.48;;;;;;;;;;5045123;28;20053;-74
2021/11/19 10:55:19;;;;;;;19.35;12.80;;;;;;;;;;5060276;28;20048;-74
2021/11/19 10:58:05;;;;;;;20.60;12.27;;;;;;;;;;5054273;28;20049;-74
2021/11/19 11:00:48;;;;;;;19.80;11.40;;;;;;;;;;5044948;28;20056;-74
2021/11/19 11:03:17;;;;;;;17.77;11.88;;;;;;;;;;5055003;28;20723;-74
2021/11/19 11:05:45;;;;;;;20.05;10.70;;;;;;;;;;5061063;28;20486;-73
2021/11/19 11:08:18;;;;;;;18.80;11.48;;;;;;;;;;5048801;28;20544;-74
2021/11/19 11:11:00;;;;;;;16.17;10.48;;;;;;;;;;5057012;28;20063;-74
2021/11/19 11:13:32;;;;;;;17.08;10.40;;;;;;;;;;5055166;28;20052;-73
2021/11/19 11:16:05;;;;;;;16.67;10.23;;;;;;;;;;5042188;28;20056;-73
2021/11/19 11:18:34;;;;;;;24.10;10.90;;;;;;;;;;5056188;28;20401;-73
2021/11/19 11:21:04;;;;;;;19.58;9.90;;;;;;;;;;5062827;28;20044;-73
2021/11/19 11:23:36;;;;;;;14.73;9.25;;;;;;;;;;5057301;28;20130;-73
2021/11/19 11:26:24;;;;;;;20.70;10.98;;;;;;;;;;5051139;28;20082;-73
2021/11/19 11:28:53;;;;;;;21.48;10.45;;;;;;;;;;5060330;28;20059;-73
2021/11/19 11:31:20;;;;;;;13.52;8.90;;;;;;;;;;5052580;28;20062;-73
2021/11/19 11:33:55;;;;;;;19.23;10.05;;;;;;;;;;5061104;28;20061;-73
2021/11/19 11:36:28;;;;;;;19.58;10.95;;;;;;;;;;5049069;28;20092;-72
2021/11/19 11:39:01;;;;;;;18.48;11.07;;;;;;;;;;5054083;28;20044;-73
2021/11/19 11:41:30;;;;;;;19.05;10.75;;;;;;;;;;5053655;28;20040;-73
2021/11/19 11:44:03;;;;;;;17.17;9.90;;;;;;;;;;5043870;28;20485;-74
2021/11/19 11:46:30;;;;;;;15.85;9.82;;;;;;;;;;5057053;28;20044;-72
2021/11/19 11:49:01;;;;;;;17.60;9.98;;;;;;;;;;5078627;28;20416;-74
2021/11/19 11:51:45;;;;;;;18.08;10.18;;;;;;;;;;5059799;28;20053;-73
2021/11/19 11:54:23;;;;;;;17.13;8.73;;;;;;;;;;5053400;28;20508;-72
2021/11/19 11:57:09;;;;;;;18.35;9.48;;;;;;;;;;5059263;28;20413;-73
2021/11/19 11:59:42;;;;;;;16.48;9.60;;;;;;;;;;5049565;28;20052;-73
2021/11/19 12:02:27;;;;;;;16.25;8.38;;;;;;;;;;5059631;28;20059;-73
2021/11/19 12:04:57;;;;;;;13.27;7.50;;;;;;;;;;5045434;28;20045;-73
2021/11/19 12:07:35;;;;;;;10.60;7.90;;;;;;;;;;5057495;28;20485;-73
2021/11/19 12:10:01;;;;;;;15.18;7.25;;;;;;;;;;5029707;28;20048;-73
2021/11/19 12:12:40;;;;;;;12.95;6.97;;;;;;;;;;5060027;28;20051;-73
2021/11/19 12:15:14;;;;;;;11.52;7.20;;;;;;;;;;5051488;28;20044;-73
2021/11/19 12:17:45;;;;;;;12.73;6.60;;;;;;;;;;5034767;28;20044;-73
2021/11/19 12:20:19;;;;;;;10.98;6.40;;;;;;;;;;5018219;28;20055;-73
2021/11/19 12:22:53;;;;;;;11.13;6.53;;;;;;;;;;5048538;28;20037;-73
2021/11/19 12:25:31;;;;;;;9.75;5.95;;;;;;;;;;5057864;28;20048;-73
2021/11/19 12:28:00;;;;;;;11.32;6.72;;;;;;;;;;5050535;28;20056;-74
2021/11/19 12:30:34;;;;;;;15.88;6.05;;;;;;;;;;5059429;28;20052;-73
2021/11/19 12:33:04;;;;;;;13.23;6.28;;;;;;;;;;5043474;28;20064;-73
2021/11/19 12:35:36;;;;;;;11.02;6.35;;;;;;;;;;5054596;28;20052;-73
2021/11/19 12:38:06;;;;;;;16.67;7.63;;;;;;;;;;5050985;28;20063;-73
2021/11/19 12:40:34;;;;;;;10.55;6.20;;;;;;;;;;5059184;28;20044;-73
2021/11/19 12:43:19;;;;;;;14.10;6.40;;;;;;;;;;5059570;28;20047;-73
2021/11/19 12:45:49;;;;;;;17.02;6.38;;;;;;;;;;5052890;28;21780;-73
2021/11/19 12:48:33;;;;;;;11.18;5.72;;;;;;;;;;5052941;28;20394;-73
2021/11/19 12:51:03;;;;;;;11.00;6.07;;;;;;;;;;5049058;28;20055;-73
2021/11/19 12:53:48;;;;;;;14.35;5.60;;;;;;;;;;5039657;28;20053;-73
2021/11/19 12:56:17;;;;;;;11.98;6.32;;;;;;;;;;5047806;28;20055;-73
2021/11/19 12:59:03;;;;;;;10.27;5.78;;;;;;;;;;5045437;28;20478;-73
2021/11/19 13:01:42;;;;;;;12.18;5.47;;;;;;;;;;5039839;28;20048;-73
2021/11/19 13:04:18;;;;;;;10.00;5.30;;;;;;;;;;5058820;28;20224;-74
2021/11/19 13:06:56;;;;;;;14.70;5.78;;;;;;;;;;5050040;28;20051;-73
2021/11/19 13:09:24;;;;;;;;;;;;;;;;;;5060289;28;20048;-73
2021/11/19 13:12:08;;;;;;;8.75;5.50;;;;;;;;;;5050935;28;19962;-73
2021/11/19 13:14:34;;;;;;;10.68;5.28;;;;;;;;;;5053146;28;20162;-73
2021/11/19 13:17:11;;;;;;;12.13;6.07;;;;;;;;;;5052674;28;20057;-73
2021/11/19 13:19:38;;;;;;;12.88;6.50;;;;;;;;;;5052454;28;20114;-73
2021/11/19 13:22:10;;;;;;;11.50;5.93;;;;;;;;;;5059734;28;20052;-73
2021/11/19 13:24:39;;;;;;;14.57;5.88;;;;;;;;;;5052260;28;20413;-73
2021/11/19 13:27:08;;;;;;;14.88;6.05;;;;;;;;;;5055021;28;20899;-73
2021/11/19 13:29:48;;;;;;;10.07;5.43;;;;;;;;;;5026060;28;20139;-73
2021/11/19 13:32:32;;;;;;;12.82;5.93;;;;;;;;;;5058306;28;20071;-73
2021/11/19 13:34:59;;;;;;;11.98;5.80;;;;;;;;;;5050908;28;20048;-73
2021/11/19 13:37:26;;;;;;;13.60;6.43;;;;;;;;;;5058770;28;20052;-73
2021/11/19 13:39:57;;;;;;;14.27;5.90;;;;;;;;;;5058091;28;20052;-73
2021/11/19 13:42:27;;;;;;;9.82;5.40;;;;;;;;;;5049877;28;21055;-73
2021/11/19 13:45:07;;;;;;;8.43;5.68;;;;;;;;;;5054114;28;20417;-73
2021/11/19 13:47:39;;;;;;;12.65;5.72;;;;;;;;;;5049877;28;20052;-72
2021/11/19 13:50:11;;;;;;;12.10;5.88;;;;;;;;;;5057835;28;20052;-73
2021/11/19 13:52:41;;;;;;;10.48;5.32;;;;;;;;;;5049676;28;20044;-73
2021/11/19 13:55:27;;;;;;;9.48;5.40;;;;;;;;;;5035567;28;20048;-73
2021/11/19 13:58:11;;;;;;;11.82;5.25;;;;;;;;;;5045574;28;20115;-73
2021/11/19 14:01:02;;;;;;;8.70;4.55;;;;;;;;;;5057911;28;20139;-72
2021/11/19 14:03:32;;;;;;;13.30;5.47;;;;;;;;;;5050634;28;20381;-73
2021/11/19 14:06:12;;;;;;;7.40;4.47;;;;;;;;;;5058387;28;20053;-73
2021/11/19 14:08:38;;;;;;;9.93;5.30;;;;;;;;;;5049491;28;20717;-73
2021/11/19 14:11:13;;;;;;;10.00;4.47;;;;;;;;;;5039296;28;20060;-73
2021/11/19 14:13:42;;;;;;;9.43;4.47;;;;;;;;;;5057606;28;20063;-73
2021/11/19 14:16:11;;;;;;;10.57;4.90;;;;;;;;;;5049991;28;20066;-73
2021/11/19 14:19:01;;;;;;;10.60;4.18;;;;;;;;;;5055330;28;20328;-73
2021/11/19 14:24:24;;;;;;;10.70;4.20;;;;;;;;;;5059308;28;20048;-73
2021/11/19 14:27:06;;;;;;;10.23;5.25;;;;;;;;;;5051729;28;20063;-73
2021/11/19 14:29:37;;;;;;;8.82;3.95;;;;;;;;;;5059546;28;20059;-73
2021/11/19 14:32:06;;;;;;;14.30;4.25;;;;;;;;;;5047891;28;20498;-73
2021/11/19 14:34:35;;;;;;;11.93;4.25;;;;;;;;;;5053349;28;20049;-73
2021/11/19 14:37:09;;;;;;;14.25;3.95;;;;;;;;;;5050314;28;20058;-73
2021/11/19 14:39:35;;;;;;;11.18;4.38;;;;;;;;;;5057086;28;20048;-73
2021/11/19 14:42:10;;;;;;;9.05;4.45;;;;;;;;;;5043878;28;20044;-73